createdAt,value
2022-11-01T00:02:01.059Z,100.00
2022-11-01T00:04:27.763Z,100.00
2022-11-01T00:06:54.434Z,100.00
2022-11-01T00:09:21.383Z,100.00
2022-11-01T00:11:47.965Z,100.00
2022-11-01T00:14:17.235Z,100.00
2022-11-01T00:16:44.139Z,100.00
2022-11-01T00:19:11.200Z,100.00
2022-11-01T00:21:37.746Z,100.00
2022-11-01T00:24:04.516Z,100.00
2022-11-01T00:26:31.169Z,100.00
2022-11-01T00:28:57.734Z,100.00
2022-11-01T00:31:24.997Z,100.00
2022-11-01T00:33:51.532Z,100.00
2022-11-01T00:36:18.396Z,100.00
2022-11-01T00:38:45.055Z,100.00
2022-11-01T00:41:11.597Z,100.00
2022-11-01T00:43:38.152Z,100.00
2022-11-01T00:46:05.331Z,100.00
2022-11-01T00:48:32.155Z,100.00
2022-11-01T00:50:58.894Z,100.00
2022-11-01T00:53:25.646Z,100.00
2022-11-01T00:55:52.530Z,100.00
2022-11-01T00:58:19.159Z,100.00
2022-11-01T01:00:47.577Z,100.00
2022-11-01T01:03:14.238Z,100.00
2022-11-01T01:05:40.804Z,100.00
2022-11-01T01:08:07.342Z,100.00
2022-11-01T01:10:35.896Z,100.00
2022-11-01T01:13:03.065Z,100.00
2022-11-01T01:15:29.934Z,100.00
2022-11-01T01:17:56.535Z,100.00
2022-11-01T01:20:23.928Z,100.00
2022-11-01T01:22:50.670Z,100.00
2022-11-01T01:25:17.771Z,100.00
2022-11-01T01:27:44.375Z,100.00
2022-11-01T01:30:11.699Z,100.00
2022-11-01T01:32:38.660Z,100.00
2022-11-01T01:35:05.737Z,100.00
2022-11-01T01:37:32.378Z,100.00
2022-11-01T01:39:59.007Z,100.00
2022-11-01T01:42:37.460Z,100.00
2022-11-01T01:45:27.303Z,100.00
2022-11-01T01:47:56.104Z,100.00
2022-11-01T01:50:35.464Z,100.00
2022-11-01T01:53:17.405Z,100.00
2022-11-01T01:55:54.021Z,100.00
2022-11-01T01:58:25.170Z,100.00
2022-11-01T02:00:54.113Z,100.00
2022-11-01T02:03:23.560Z,100.00
2022-11-01T02:06:07.790Z,100.00
2022-11-01T02:08:35.442Z,100.00
2022-11-01T02:11:05.504Z,100.00
2022-11-01T02:13:32.359Z,100.00
2022-11-01T02:16:37.591Z,100.00
2022-11-01T02:19:09.901Z,100.00
2022-11-01T02:21:48.450Z,100.00
2022-11-01T02:24:52.451Z,100.00
2022-11-01T02:27:24.865Z,100.00
2022-11-01T02:30:14.969Z,100.00
2022-11-01T02:33:00.016Z,100.00
2022-11-01T02:35:40.532Z,100.00
2022-11-01T02:38:22.373Z,100.00
2022-11-01T02:41:08.457Z,100.00
2022-11-01T02:43:52.459Z,100.00
2022-11-01T02:46:40.176Z,100.00
2022-11-01T02:49:09.334Z,100.00
2022-11-01T02:51:37.723Z,100.00
2022-11-01T02:54:10.737Z,100.00
2022-11-01T02:56:39.478Z,100.00
2022-11-01T02:59:12.432Z,100.00
2022-11-01T03:01:42.218Z,100.00
2022-11-01T03:04:08.832Z,100.00
2022-11-01T03:06:46.202Z,100.00
2022-11-01T03:09:14.589Z,100.00
2022-11-01T03:12:03.682Z,100.00
2022-11-01T03:14:44.432Z,100.00
2022-11-01T03:17:25.468Z,100.00
2022-11-01T03:20:06.014Z,100.00
2022-11-01T03:22:48.915Z,100.00
2022-11-01T03:25:44.417Z,100.00
2022-11-01T03:28:28.658Z,100.00
2022-11-01T03:31:21.377Z,100.00
2022-11-01T03:34:15.920Z,100.00
2022-11-01T03:36:49.854Z,100.00
2022-11-01T03:39:22.007Z,100.00
2022-11-01T03:41:54.477Z,100.00
2022-11-01T03:44:21.401Z,100.00
2022-11-01T03:46:49.106Z,100.00
2022-11-01T03:49:19.780Z,100.00
2022-11-01T03:51:46.694Z,100.00
2022-11-01T03:54:13.305Z,100.00
2022-11-01T03:56:43.174Z,100.00
2022-11-01T03:59:10.808Z,100.00
2022-11-01T04:01:37.982Z,100.00
2022-11-01T04:04:04.755Z,100.00
2022-11-01T04:06:31.510Z,100.00
2022-11-01T04:08:58.066Z,100.00
2022-11-01T04:11:24.652Z,100.00
2022-11-01T04:13:51.319Z,100.00
2022-11-01T04:16:36.724Z,100.00
2022-11-01T04:19:22.028Z,100.00
2022-11-01T04:21:48.651Z,100.00
2022-11-01T04:24:21.251Z,100.00
2022-11-01T04:26:48.462Z,100.00
2022-11-01T04:29:15.032Z,100.00
2022-11-01T04:31:41.569Z,100.00
2022-11-01T04:34:08.578Z,100.00
2022-11-01T04:36:37.314Z,100.00
2022-11-01T04:39:03.880Z,100.00
2022-11-01T04:41:30.451Z,100.00
2022-11-01T04:43:59.063Z,100.00
2022-11-01T04:46:26.021Z,100.00
2022-11-01T04:48:52.634Z,100.00
2022-11-01T04:51:19.164Z,100.00
2022-11-01T04:53:45.705Z,100.00
2022-11-01T04:56:13.569Z,100.00
2022-11-01T04:58:44.747Z,100.00
2022-11-01T05:01:13.668Z,100.00
2022-11-01T05:03:40.385Z,100.00
2022-11-01T05:06:06.963Z,100.00
2022-11-01T05:08:36.862Z,100.00
2022-11-01T05:11:03.490Z,100.00
2022-11-01T05:13:30.235Z,100.00
2022-11-01T05:16:18.365Z,100.00
2022-11-01T05:18:43.475Z,100.00
2022-11-01T05:21:10.089Z,100.00
2022-11-01T05:23:36.757Z,100.00
2022-11-01T05:26:03.337Z,100.00
2022-11-01T05:28:29.863Z,100.00
2022-11-01T05:30:57.931Z,100.00
2022-11-01T05:33:24.482Z,100.00
2022-11-01T05:35:51.122Z,100.00
2022-11-01T05:38:17.720Z,100.00
2022-11-01T05:40:44.251Z,100.00
2022-11-01T05:43:10.863Z,100.00
2022-11-01T05:45:37.958Z,100.00
2022-11-01T05:48:04.811Z,100.00
2022-11-01T05:50:31.731Z,100.00
2022-11-01T05:53:08.313Z,100.00
2022-11-01T05:55:35.783Z,100.00
2022-11-01T05:58:02.498Z,100.00
2022-11-01T06:00:29.226Z,100.00
2022-11-01T06:03:00.984Z,100.00
2022-11-01T06:05:28.654Z,100.00
2022-11-01T06:07:55.348Z,100.00
2022-11-01T06:10:22.086Z,100.00
2022-11-01T06:12:48.773Z,100.00
2022-11-01T06:15:15.474Z,100.00
2022-11-01T06:17:42.124Z,100.00
2022-11-01T06:20:09.468Z,100.00
2022-11-01T06:22:36.420Z,100.00
2022-11-01T06:25:03.600Z,100.00
2022-11-01T06:27:30.539Z,100.00
2022-11-01T06:29:57.049Z,100.00
2022-11-01T06:32:23.558Z,100.00
2022-11-01T06:34:50.336Z,100.00
2022-11-01T06:37:16.941Z,100.00
2022-11-01T06:39:44.134Z,100.00
2022-11-01T06:42:10.677Z,100.00
2022-11-01T06:44:37.207Z,100.00
2022-11-01T06:47:03.939Z,100.00
2022-11-01T06:49:30.596Z,100.00
2022-11-01T06:51:58.775Z,100.00
2022-11-01T06:54:25.799Z,100.00
2022-11-01T06:56:52.323Z,100.00
2022-11-01T06:59:21.164Z,100.00
2022-11-01T07:01:47.824Z,100.00
2022-11-01T07:04:14.488Z,100.00
2022-11-01T07:06:41.416Z,100.00
2022-11-01T07:09:08.034Z,100.00
2022-11-01T07:11:34.726Z,100.00
2022-11-01T07:14:01.347Z,100.00
2022-11-01T07:16:29.366Z,100.00
2022-11-01T07:18:56.104Z,100.00
2022-11-01T07:21:22.990Z,100.00
2022-11-01T07:23:50.142Z,100.00
2022-11-01T07:26:16.922Z,100.00
2022-11-01T07:28:43.527Z,100.00
2022-11-01T07:31:10.202Z,100.00
2022-11-01T07:33:36.907Z,100.00
2022-11-01T07:36:04.793Z,100.00
2022-11-01T07:38:31.762Z,100.00
2022-11-01T07:40:58.486Z,100.00
2022-11-01T07:43:25.295Z,100.00
2022-11-01T07:45:52.077Z,100.00
2022-11-01T07:48:19.937Z,100.00
2022-11-01T07:50:46.705Z,100.00
2022-11-01T07:53:14.759Z,100.00
2022-11-01T07:55:42.480Z,100.00
2022-11-01T07:58:10.049Z,100.00
2022-11-01T08:00:37.802Z,100.00
2022-11-01T08:03:12.722Z,100.00
2022-11-01T08:05:39.747Z,100.00
2022-11-01T08:08:07.169Z,100.00
2022-11-01T08:10:35.572Z,100.00
2022-11-01T08:13:14.792Z,100.00
2022-11-01T08:15:41.677Z,100.00
2022-11-01T08:18:10.136Z,100.00
2022-11-01T08:20:36.835Z,100.00
2022-11-01T08:23:03.982Z,100.00
2022-11-01T08:25:31.184Z,100.00
2022-11-01T08:28:06.237Z,100.00
2022-11-01T08:30:33.726Z,100.00
2022-11-01T08:33:02.368Z,100.00
2022-11-01T08:35:29.667Z,100.00
2022-11-01T08:37:56.466Z,100.00
2022-11-01T08:40:22.991Z,100.00
2022-11-01T08:42:51.001Z,100.00
2022-11-01T08:45:18.025Z,100.00
2022-11-01T08:47:45.048Z,100.00
2022-11-01T08:50:14.996Z,100.00
2022-11-01T08:52:41.874Z,100.00
2022-11-01T08:55:10.114Z,100.00
2022-11-01T08:57:36.842Z,100.00
2022-11-01T09:00:07.136Z,100.00
2022-11-01T09:02:34.820Z,100.00
2022-11-01T09:05:05.156Z,100.00
2022-11-01T09:07:36.053Z,100.00
2022-11-01T09:10:02.984Z,100.00
2022-11-01T09:12:29.907Z,100.00
2022-11-01T09:14:56.530Z,100.00
2022-11-01T09:17:23.354Z,100.00
2022-11-01T09:19:50.048Z,100.00
2022-11-01T09:22:17.581Z,100.00
2022-11-01T09:24:44.141Z,100.00
2022-11-01T09:27:10.882Z,100.00
2022-11-01T09:29:37.836Z,100.00
2022-11-01T09:32:04.820Z,100.00
2022-11-01T09:34:31.310Z,100.00
2022-11-01T09:36:58.072Z,100.00
2022-11-01T09:39:24.855Z,100.00
2022-11-01T09:41:56.416Z,100.00
2022-11-01T09:44:26.055Z,100.00
2022-11-01T09:47:21.965Z,100.00
2022-11-01T09:49:57.719Z,100.00
2022-11-01T09:52:25.510Z,100.00
2022-11-01T09:54:52.176Z,100.00
2022-11-01T09:57:28.064Z,100.00
2022-11-01T10:00:04.304Z,100.00
2022-11-01T10:02:36.548Z,100.00
2022-11-01T10:05:31.800Z,100.00
2022-11-01T10:08:10.783Z,100.00
2022-11-01T10:10:41.936Z,100.00
2022-11-01T10:13:29.884Z,100.00
2022-11-01T10:16:00.536Z,100.00
2022-11-01T10:18:35.088Z,100.00
2022-11-01T10:21:08.574Z,95.72
2022-11-01T10:23:46.220Z,94.01
2022-11-01T10:26:29.273Z,98.66
2022-11-01T10:29:20.358Z,95.63
2022-11-01T10:31:50.896Z,95.78
2022-11-01T10:34:17.255Z,89.46
2022-11-01T10:36:45.099Z,84.25
2022-11-01T10:42:17.631Z,84.90
2022-11-01T10:44:48.487Z,84.92
2022-11-01T10:47:19.165Z,80.24
2022-11-01T10:50:05.522Z,79.62
2022-11-01T10:52:45.528Z,72.46
2022-11-01T10:55:19.659Z,70.20
2022-11-01T10:57:53.830Z,68.35
2022-11-01T11:00:21.703Z,67.07
2022-11-01T11:02:55.751Z,65.69
2022-11-01T11:05:26.339Z,67.01
2022-11-01T11:07:53.110Z,64.09
2022-11-01T11:10:27.100Z,63.70
2022-11-01T11:13:01.295Z,63.97
2022-11-01T11:15:44.226Z,62.57
2022-11-01T11:18:30.673Z,59.51
2022-11-01T11:21:00.485Z,61.03
2022-11-01T11:23:34.068Z,61.22
2022-11-01T11:26:36.155Z,61.06
2022-11-01T11:29:05.504Z,60.47
2022-11-01T11:31:37.586Z,60.79
2022-11-01T11:34:26.086Z,62.10
2022-11-01T11:36:55.130Z,60.72
2022-11-01T11:39:27.684Z,60.90
2022-11-01T11:41:54.831Z,60.40
2022-11-01T11:44:55.911Z,58.74
2022-11-01T11:47:25.832Z,57.68
2022-11-01T11:49:54.248Z,57.86
2022-11-01T11:52:28.666Z,58.97
2022-11-01T11:54:56.065Z,58.05
2022-11-01T11:57:30.032Z,57.53
2022-11-01T12:00:01.482Z,58.50
2022-11-01T12:02:32.605Z,57.32
2022-11-01T12:05:04.657Z,56.61
2022-11-01T12:07:37.906Z,55.80
2022-11-01T12:10:26.191Z,54.64
2022-11-01T12:12:53.438Z,54.87
2022-11-01T12:15:35.736Z,55.62
2022-11-01T12:18:14.699Z,54.91
2022-11-01T12:20:43.447Z,52.94
2022-11-01T12:23:27.007Z,52.58
2022-11-01T12:25:55.342Z,53.43
2022-11-01T12:28:42.916Z,52.88
2022-11-01T12:31:18.034Z,51.50
2022-11-01T12:33:51.863Z,52.14
2022-11-01T12:36:25.014Z,52.58
2022-11-01T12:38:59.736Z,53.27
2022-11-01T12:41:31.881Z,55.02
2022-11-01T12:44:05.764Z,55.69
2022-11-01T12:46:45.505Z,56.79
2022-11-01T12:49:40.338Z,55.90
2022-11-01T12:52:17.779Z,55.83
2022-11-01T12:54:58.439Z,57.51
2022-11-01T12:57:25.091Z,56.49
2022-11-01T12:59:52.216Z,53.95
2022-11-01T13:02:43.214Z,54.17
2022-11-01T13:05:19.228Z,54.60
2022-11-01T13:08:06.340Z,56.47
2022-11-01T13:10:48.180Z,55.95
2022-11-01T13:13:39.559Z,57.34
2022-11-01T13:16:16.393Z,57.62
2022-11-01T13:18:53.147Z,56.40
2022-11-01T13:21:46.440Z,53.78
2022-11-01T13:24:34.878Z,53.01
2022-11-01T13:27:11.071Z,52.09
2022-11-01T13:29:52.823Z,52.72
2022-11-01T13:32:28.987Z,51.32
2022-11-01T13:35:33.133Z,51.16
2022-11-01T13:38:20.612Z,52.09
2022-11-01T13:41:19.844Z,51.41
2022-11-01T13:43:56.163Z,51.98
2022-11-01T13:46:40.531Z,49.32
2022-11-01T13:49:10.122Z,49.31
2022-11-01T13:51:47.936Z,48.67
2022-11-01T13:54:25.819Z,49.46
2022-11-01T13:57:00.271Z,48.89
2022-11-01T13:59:37.536Z,49.47
2022-11-01T14:02:22.539Z,49.60
2022-11-01T14:05:13.656Z,50.75
2022-11-01T14:07:43.093Z,50.97
2022-11-01T14:10:31.814Z,51.69
2022-11-01T14:12:59.636Z,51.59
2022-11-01T14:15:28.552Z,51.98
2022-11-01T14:18:04.788Z,52.29
2022-11-01T14:20:31.627Z,52.16
2022-11-01T14:22:59.008Z,52.16
2022-11-01T14:25:30.073Z,50.14
2022-11-01T14:28:18.395Z,49.51
2022-11-01T14:30:49.395Z,50.65
2022-11-01T14:33:19.617Z,51.27
2022-11-01T14:35:54.094Z,52.05
2022-11-01T14:38:28.517Z,53.07
2022-11-01T14:41:00.272Z,53.62
2022-11-01T14:43:41.646Z,53.31
2022-11-01T14:46:22.809Z,52.42
2022-11-01T14:49:05.501Z,51.51
2022-11-01T14:51:43.345Z,51.34
2022-11-01T14:54:23.277Z,50.68
2022-11-01T14:56:52.774Z,51.47
2022-11-01T14:59:34.167Z,50.27
2022-11-01T15:02:07.454Z,50.35
2022-11-01T15:04:43.919Z,50.47
2022-11-01T15:07:29.387Z,49.56
2022-11-01T15:10:21.308Z,49.63
2022-11-01T15:12:59.054Z,49.78
2022-11-01T15:15:29.746Z,50.70
2022-11-01T15:17:59.255Z,50.28
2022-11-01T15:20:35.495Z,50.40
2022-11-01T15:23:09.861Z,50.83
2022-11-01T15:25:36.924Z,51.11
2022-11-01T15:28:03.623Z,50.51
2022-11-01T15:30:33.983Z,51.17
2022-11-01T15:33:20.520Z,51.23
2022-11-01T15:36:20.769Z,51.31
2022-11-01T15:38:54.557Z,51.34
2022-11-01T15:41:29.616Z,51.56
2022-11-01T15:43:59.236Z,52.11
2022-11-01T15:46:33.443Z,52.03
2022-11-01T15:49:15.532Z,52.25
2022-11-01T15:51:52.653Z,52.53
2022-11-01T15:54:48.054Z,53.02
2022-11-01T15:57:47.325Z,53.23
2022-11-01T16:00:30.965Z,53.51
2022-11-01T16:03:35.276Z,53.98
2022-11-01T16:06:11.040Z,54.52
2022-11-01T16:08:43.600Z,55.16
2022-11-01T16:11:11.422Z,55.54
2022-11-01T16:13:41.066Z,55.78
2022-11-01T16:16:14.866Z,55.93
2022-11-01T16:18:48.053Z,56.29
2022-11-01T16:21:25.418Z,56.84
2022-11-01T16:23:57.614Z,57.29
2022-11-01T16:26:24.591Z,58.29
2022-11-01T16:28:53.290Z,59.30
2022-11-01T16:31:22.845Z,59.53
2022-11-01T16:33:49.399Z,58.81
2022-11-01T16:36:18.930Z,58.62
2022-11-01T16:38:46.865Z,58.71
2022-11-01T16:41:20.503Z,58.71
2022-11-01T16:43:49.224Z,59.32
2022-11-01T16:46:15.754Z,58.70
2022-11-01T16:48:57.089Z,58.74
2022-11-01T16:51:28.249Z,59.06
2022-11-01T16:53:56.262Z,59.78
2022-11-01T16:56:50.074Z,60.41
2022-11-01T16:59:31.976Z,61.09
2022-11-01T17:01:59.089Z,60.74
2022-11-01T17:04:27.645Z,60.76
2022-11-01T17:06:55.925Z,61.59
2022-11-01T17:09:22.883Z,60.66
2022-11-01T17:11:51.717Z,61.16
2022-11-01T17:14:19.418Z,60.91
2022-11-01T17:16:47.786Z,60.80
2022-11-01T17:19:21.172Z,60.83
2022-11-01T17:21:49.496Z,61.41
2022-11-01T17:24:20.134Z,61.55
2022-11-01T17:26:46.820Z,61.36
2022-11-01T17:29:16.661Z,61.69
2022-11-01T17:31:43.226Z,61.59
2022-11-01T17:34:09.786Z,61.72
2022-11-01T17:36:38.267Z,61.92
2022-11-01T17:39:04.825Z,62.28
2022-11-01T17:41:31.367Z,62.38
2022-11-01T17:43:57.977Z,62.35
2022-11-01T17:46:25.868Z,63.25
2022-11-01T17:48:52.362Z,63.38
2022-11-01T17:51:19.019Z,63.90
2022-11-01T17:53:45.624Z,64.19
2022-11-01T17:56:12.126Z,64.83
2022-11-01T17:58:38.906Z,64.92
2022-11-01T18:01:07.498Z,66.01
2022-11-01T18:03:34.140Z,65.52
2022-11-01T18:06:00.776Z,65.84
2022-11-01T18:08:31.000Z,66.88
2022-11-01T18:11:10.924Z,66.83
2022-11-01T18:13:43.327Z,68.00
2022-11-01T18:16:25.091Z,68.26
2022-11-01T18:19:29.932Z,68.69
2022-11-01T18:22:24.452Z,69.55
2022-11-01T18:25:02.716Z,69.98
2022-11-01T18:27:37.560Z,70.23
2022-11-01T18:30:12.850Z,70.51
2022-11-01T18:32:48.696Z,70.78
2022-11-01T18:35:30.693Z,71.47
2022-11-01T18:38:10.740Z,72.24
2022-11-01T18:40:45.810Z,72.85
2022-11-01T18:43:12.417Z,73.06
2022-11-01T18:45:57.703Z,73.34
2022-11-01T18:48:29.085Z,73.28
2022-11-01T18:51:05.070Z,73.28
2022-11-01T18:53:33.022Z,73.61
2022-11-01T18:56:22.604Z,73.74
2022-11-01T18:58:51.213Z,74.60
2022-11-01T19:01:31.909Z,74.96
2022-11-01T19:04:11.077Z,75.57
2022-11-01T19:06:37.585Z,76.07
2022-11-01T19:09:24.338Z,76.87
2022-11-01T19:12:15.978Z,77.46
2022-11-01T19:14:44.235Z,78.00
2022-11-01T19:17:24.506Z,79.05
2022-11-01T19:19:53.691Z,80.38
2022-11-01T19:22:31.708Z,80.04
2022-11-01T19:24:59.574Z,79.29
2022-11-01T19:27:26.640Z,79.57
2022-11-01T19:29:57.756Z,79.59
2022-11-01T19:32:26.008Z,79.54
2022-11-01T19:34:53.957Z,79.59
2022-11-01T19:37:34.612Z,80.68
2022-11-01T19:40:09.928Z,81.58
2022-11-01T19:42:36.424Z,81.14
2022-11-01T19:45:28.824Z,81.64
2022-11-01T19:47:55.687Z,82.08
2022-11-01T19:50:36.098Z,82.14
2022-11-01T19:53:02.707Z,83.79
2022-11-01T19:55:43.662Z,84.05
2022-11-01T19:58:22.611Z,84.08
2022-11-01T20:00:49.658Z,84.79
2022-11-01T20:03:29.998Z,85.43
2022-11-01T20:05:56.727Z,86.41
2022-11-01T20:08:30.729Z,86.78
2022-11-01T20:10:57.331Z,87.03
2022-11-01T20:13:24.056Z,88.18
2022-11-01T20:15:50.582Z,88.65
2022-11-01T20:18:17.088Z,89.26
2022-11-01T20:20:45.853Z,90.06
2022-11-01T20:23:25.754Z,89.55
2022-11-01T20:25:53.185Z,90.14
2022-11-01T20:28:19.750Z,90.85
2022-11-01T20:30:46.328Z,91.52
2022-11-01T20:33:13.334Z,91.93
2022-11-01T20:35:39.901Z,91.54
2022-11-01T20:38:06.503Z,91.64
2022-11-01T20:40:33.034Z,92.06
2022-11-01T20:43:00.159Z,93.25
2022-11-01T20:45:26.974Z,93.97
2022-11-01T20:47:53.539Z,94.38
2022-11-01T20:50:20.186Z,95.93
2022-11-01T20:52:46.854Z,96.33
2022-11-01T20:55:13.448Z,96.92
2022-11-01T20:57:40.111Z,97.60
2022-11-01T21:00:09.902Z,98.34
2022-11-01T21:02:36.779Z,98.75
2022-11-01T21:05:24.033Z,99.26
2022-11-01T21:08:14.609Z,100.00
2022-11-01T21:10:43.194Z,100.00
2022-11-01T21:13:27.096Z,100.00
2022-11-01T21:15:56.136Z,100.00
2022-11-01T21:18:36.861Z,100.00
2022-11-01T21:21:15.298Z,100.00
2022-11-01T21:23:43.898Z,100.00
2022-11-01T21:26:17.468Z,100.00
2022-11-01T21:28:49.163Z,100.00
2022-11-01T21:31:15.663Z,100.00
2022-11-01T21:33:54.356Z,100.00
2022-11-01T21:36:20.877Z,100.00
2022-11-01T21:39:01.756Z,100.00
2022-11-01T21:41:44.940Z,100.00
2022-11-01T21:44:20.113Z,100.00
2022-11-01T21:46:49.505Z,100.00
2022-11-01T21:49:24.146Z,100.00
2022-11-01T21:51:51.122Z,100.00
2022-11-01T21:54:17.728Z,100.00
2022-11-01T21:56:44.321Z,100.00
2022-11-01T21:59:10.854Z,100.00
2022-11-01T22:01:39.459Z,100.00
2022-11-01T22:04:06.364Z,100.00
2022-11-01T22:06:32.879Z,100.00
2022-11-01T22:08:59.489Z,100.00
2022-11-01T22:11:31.529Z,100.00
2022-11-01T22:13:59.130Z,100.00
2022-11-01T22:16:25.819Z,100.00
2022-11-01T22:18:52.506Z,100.00
2022-11-01T22:21:19.082Z,100.00
2022-11-01T22:23:45.960Z,100.00
2022-11-01T22:26:12.755Z,100.00
2022-11-01T22:28:39.656Z,100.00
2022-11-01T22:31:06.635Z,100.00
2022-11-01T22:33:34.905Z,100.00
2022-11-01T22:36:07.011Z,100.00
2022-11-01T22:38:42.004Z,100.00
2022-11-01T22:41:14.111Z,100.00
2022-11-01T22:43:47.634Z,100.00
2022-11-01T22:46:21.679Z,100.00
2022-11-01T22:48:49.392Z,100.00
2022-11-01T22:51:22.729Z,100.00
2022-11-01T22:53:52.538Z,100.00
2022-11-01T22:56:19.362Z,100.00
2022-11-01T22:58:46.129Z,100.00
2022-11-01T23:01:23.499Z,100.00
2022-11-01T23:03:54.482Z,100.00
2022-11-01T23:06:20.926Z,100.00
2022-11-01T23:08:48.348Z,100.00
2022-11-01T23:11:37.492Z,100.00
2022-11-01T23:14:34.898Z,100.00
2022-11-01T23:17:01.681Z,100.00
2022-11-01T23:19:28.368Z,100.00
2022-11-01T23:21:54.943Z,100.00
2022-11-01T23:24:21.537Z,100.00
2022-11-01T23:26:48.094Z,100.00
2022-11-01T23:29:14.683Z,100.00
2022-11-01T23:31:41.331Z,100.00
2022-11-01T23:34:09.878Z,100.00
2022-11-01T23:36:38.296Z,100.00
2022-11-01T23:39:09.038Z,100.00
2022-11-01T23:41:41.728Z,100.00
2022-11-01T23:44:28.702Z,100.00
2022-11-01T23:47:04.165Z,100.00
2022-11-01T23:49:33.060Z,100.00
2022-11-01T23:52:00.417Z,100.00
2022-11-01T23:54:26.891Z,100.00
2022-11-01T23:56:54.955Z,100.00
2022-11-01T23:59:21.477Z,100.00
